Time;durP1;ratioP1;P1;durP2;ratioP2;P2;SDS_P1;SDS_P2;PMS_P1;PMS_P2;Temp;Humidity;BMP_temperature;BMP_pressure;BME280_temperature;BME280_humidity;BME280_pressure;Samples;Min_cycle;Max_cycle;Signal;HPM_P1;HPM_P2
2022/06/12 00:01:08;;;;;;;21.00;18.90;;;;;;;13.10;100.00;99474.19;105182;1271;69231;-70
2022/06/12 00:03:36;;;;;;;24.10;21.30;;;;;;;13.07;100.00;99471.50;105166;1271;74248;-69
2022/06/12 00:06:03;;;;;;;22.60;20.30;;;;;;;13.06;100.00;99474.52;104963;1271;61394;-69
2022/06/12 00:08:33;;;;;;;23.40;21.00;;;;;;;13.01;100.00;99473.03;105168;1271;61347;-69
2022/06/12 00:11:02;;;;;;;22.70;19.90;;;;;;;12.98;100.00;99478.06;105202;1271;76295;-70
2022/06/12 00:13:39;;;;;;;22.30;19.80;;;;;;;12.96;100.00;99478.89;104972;1271;69336;-69
2022/06/12 00:16:09;;;;;;;22.00;19.70;;;;;;;12.94;100.00;99480.81;105190;1271;74160;-70
2022/06/12 00:18:37;;;;;;;;;;;;;;;12.92;100.00;99479.89;105205;1271;61393;-70
2022/06/12 00:21:10;;;;;;;21.70;19.20;;;;;;;12.88;100.00;99481.08;105152;1271;61470;-71
2022/06/12 00:23:52;;;;;;;21.40;19.00;;;;;;;12.85;100.00;99475.21;105181;1271;76216;-70
2022/06/12 00:26:26;;;;;;;20.50;18.40;;;;;;;12.81;100.00;99476.20;105231;1271;68697;-70
2022/06/12 00:29:03;;;;;;;27.20;20.10;;;;;;;12.76;100.00;99474.73;104966;1271;71759;-71
2022/06/12 00:31:31;;;;;;;22.10;19.30;;;;;;;12.72;100.00;99472.30;104907;1271;61338;-70
2022/06/12 00:34:01;;;;;;;23.80;20.20;;;;;;;12.70;100.00;99477.11;105245;1270;61211;-71
2022/06/12 00:36:28;;;;;;;22.80;20.40;;;;;;;12.66;100.00;99474.33;105212;1271;75196;-71
2022/06/12 00:38:54;;;;;;;26.20;21.40;;;;;;;12.62;100.00;99474.77;105190;1271;67646;-71
2022/06/12 00:41:21;;;;;;;23.20;20.90;;;;;;;12.61;100.00;99478.45;104951;1271;72680;-71
2022/06/12 00:43:48;;;;;;;26.40;23.60;;;;;;;12.59;100.00;99477.17;105204;1271;61275;-70
2022/06/12 00:46:37;;;;;;;26.90;24.20;;;;;;;12.58;100.00;99475.79;105147;1271;61299;-70
2022/06/12 00:49:08;;;;;;;28.20;25.20;;;;;;;12.56;100.00;99473.44;105190;1271;76452;-70
2022/06/12 00:51:35;;;;;;;29.20;25.70;;;;;;;12.54;100.00;99474.98;105172;1271;67455;-70
2022/06/12 00:54:03;;;;;;;29.00;25.00;;;;;;;12.52;100.00;99474.89;105206;1271;71306;-70
2022/06/12 00:56:34;;;;;;;26.90;24.10;;;;;;;12.51;100.00;99470.90;104944;1272;61339;-71
2022/06/12 00:59:07;;;;;;;27.90;24.80;;;;;;;12.50;100.00;99470.58;105183;1270;61844;-70
2022/06/12 01:01:38;;;;;;;27.60;24.80;;;;;;;12.50;100.00;99464.72;104888;1272;75208;-70
2022/06/12 01:06:55;;;;;;;27.60;24.80;;;;;;;12.50;100.00;99461.89;105172;1271;74193;-70
2022/06/12 01:09:24;;;;;;;;;;;;;;;12.50;100.00;99458.52;105199;1271;61329;-70
2022/06/12 01:11:54;;;;;;;27.70;24.80;;;;;;;12.48;100.00;99454.00;105198;1271;61386;-70
2022/06/12 01:14:25;;;;;;;28.50;25.60;;;;;;;12.48;100.00;99454.01;105234;1271;76875;-70
2022/06/12 01:16:56;;;;;;;27.50;24.70;;;;;;;12.47;100.00;99452.80;105187;1271;69144;-70
2022/06/12 01:19:34;;;;;;;26.20;23.50;;;;;;;12.47;100.00;99448.90;104902;1271;73033;-70
2022/06/12 01:22:30;;;;;;;25.40;22.80;;;;;;;12.45;100.00;99446.51;105329;1270;61327;-69
2022/06/12 01:25:28;;;;;;;25.20;22.20;;;;;;;12.43;100.00;99447.39;104460;1280;61201;-71
2022/06/12 01:28:21;;;;;;;25.50;22.80;;;;;;;12.40;100.00;99444.94;104066;1280;72398;-70
2022/06/12 01:31:14;;;;;;;24.90;22.50;;;;;;;12.36;100.00;99441.96;103928;1285;68391;-71
2022/06/12 01:34:19;;;;;;;23.60;21.10;;;;;;;12.30;100.00;99444.84;104068;1285;73240;-70
2022/06/12 01:37:27;;;;;;;24.80;22.20;;;;;;;12.24;100.00;99439.02;103376;1290;61327;-70
2022/06/12 01:40:16;;;;;;;25.30;22.70;;;;;;;12.19;100.00;99437.58;103352;1290;61393;-70
2022/06/12 01:42:52;;;;;;;26.40;23.80;;;;;;;12.14;100.00;99441.63;103394;1290;75379;-70
2022/06/12 01:45:30;;;;;;;25.80;23.40;;;;;;;12.10;100.00;99443.02;103391;1291;70428;-70
2022/06/12 01:48:18;;;;;;;26.70;24.20;;;;;;;12.04;100.00;99442.64;103330;1291;74266;-70
2022/06/12 01:51:10;;;;;;;27.10;24.20;;;;;;;11.99;100.00;99441.23;103318;1290;61325;-71
2022/06/12 01:53:40;;;;;;;24.40;22.10;;;;;;;11.93;100.00;99441.60;103385;1290;62038;-71
2022/06/12 01:56:16;;;;;;;24.80;22.40;;;;;;;11.89;100.00;99441.20;103384;1291;75229;-69
2022/06/12 01:58:53;;;;;;;28.60;25.70;;;;;;;11.85;100.00;99441.56;103372;1291;66449;-70
2022/06/12 02:01:43;;;;;;;26.60;24.10;;;;;;;11.85;100.00;99439.45;103459;1285;73446;-70
2022/06/12 02:04:18;;;;;;;27.20;24.50;;;;;;;11.83;100.00;99440.29;103875;1284;61583;-70
2022/06/12 02:06:54;;;;;;;27.90;25.10;;;;;;;11.81;100.00;99435.79;103951;1284;61392;-74
2022/06/12 02:09:28;;;;;;;29.20;26.20;;;;;;;11.79;100.00;99434.29;104614;1277;73346;-72
2022/06/12 02:15:17;;;;;;;28.00;25.30;;;;;;;11.78;100.00;99438.27;105122;1271;74206;-72
2022/06/12 02:17:49;;;;;;;29.90;26.70;;;;;;;11.77;100.00;99440.30;104969;1271;61287;-71
2022/06/12 02:20:21;;;;;;;29.10;26.30;;;;;;;11.79;100.00;99441.61;105159;1271;61793;-72
2022/06/12 02:22:49;;;;;;;30.20;26.80;;;;;;;11.79;100.00;99442.11;105344;1270;75138;-72
2022/06/12 02:25:38;;;;;;;29.50;26.60;;;;;;;11.79;100.00;99438.39;105168;1271;69115;-71
2022/06/12 02:28:22;;;;;;;28.50;25.80;;;;;;;11.78;100.00;99439.54;105232;1271;74362;-72
2022/06/12 02:30:57;;;;;;;27.50;24.80;;;;;;;11.77;100.00;99438.55;105195;1271;61291;-72
2022/06/12 02:33:28;;;;;;;27.50;24.40;;;;;;;11.74;100.00;99441.39;105252;1271;61492;-72
2022/06/12 02:36:32;;;;;;;27.60;25.00;;;;;;;11.73;100.00;99444.83;105153;1271;75200;-72
2022/06/12 02:39:20;;;;;;;25.60;23.00;;;;;;;11.71;100.00;99447.63;104624;1277;69226;-72
2022/06/12 02:41:51;;;;;;;26.30;23.70;;;;;;;11.71;100.00;99452.27;104506;1277;74318;-73
2022/06/12 02:44:32;;;;;;;25.30;22.80;;;;;;;11.70;100.00;99452.48;104299;1277;61391;-72
2022/06/12 02:47:02;;;;;;;;;;;;;;;11.71;100.00;99453.88;104558;1277;61377;-72
2022/06/12 02:49:29;;;;;;;22.30;20.10;;;;;;;11.69;100.00;99450.80;104527;1277;75028;-72
2022/06/12 02:52:08;;;;;;;23.10;20.90;;;;;;;11.70;100.00;99450.41;104562;1277;61310;-72
2022/06/12 02:54:56;;;;;;;24.50;22.20;;;;;;;11.69;100.00;99450.95;104558;1277;74173;-72
2022/06/12 02:57:35;;;;;;;25.70;23.10;;;;;;;11.71;100.00;99453.52;104236;1281;61387;-72
2022/06/12 03:00:10;;;;;;;24.80;22.30;;;;;;;11.73;100.00;99452.72;104579;1277;61330;-73
2022/06/12 03:02:57;;;;;;;23.90;21.80;;;;;;;11.73;100.00;99451.21;104352;1277;75405;-71
2022/06/12 03:05:29;;;;;;;26.40;23.60;;;;;;;11.75;100.00;99446.47;104303;1277;333559;-72
2022/06/12 03:08:03;;;;;;;26.70;24.20;;;;;;;11.80;100.00;99447.24;104562;1277;73265;-72
2022/06/12 03:10:49;;;;;;;26.00;23.50;;;;;;;11.87;100.00;99449.09;104620;1277;61297;-72
2022/06/12 03:13:18;;;;;;;26.30;23.90;;;;;;;11.95;100.00;99450.23;104584;1277;62132;-73
2022/06/12 03:15:50;;;;;;;26.70;24.10;;;;;;;12.01;100.00;99451.95;104665;1271;75311;-71
2022/06/12 03:18:24;;;;;;;23.60;21.50;;;;;;;12.11;100.00;99450.64;105169;1271;69347;-72
2022/06/12 03:21:06;;;;;;;26.40;23.70;;;;;;;12.18;100.00;99456.02;104925;1272;73073;-70
2022/06/12 03:23:55;;;;;;;26.30;23.60;;;;;;;12.26;100.00;99454.43;104938;1271;61607;-71
2022/06/12 03:26:40;;;;;;;29.60;24.80;;;;;;;12.38;100.00;99454.86;105197;1271;61347;-71
2022/06/12 03:29:33;;;;;;;25.10;22.60;;;;;;;13.10;100.00;99453.81;105172;1271;75113;-73
2022/06/12 03:32:14;;;;;;;20.50;18.40;;;;;;;14.66;100.00;99447.45;104758;1277;69442;-71
2022/06/12 03:34:48;;;;;;;19.00;17.00;;;;;;;15.87;100.00;99443.70;104786;1277;74507;-71
2022/06/12 03:37:27;;;;;;;16.40;14.80;;;;;;;16.86;100.00;99446.16;104790;1277;61712;-71
2022/06/12 03:40:07;;;;;;;15.40;13.80;;;;;;;17.81;100.00;99441.95;104784;1277;61336;-71
2022/06/12 03:42:57;;;;;;;14.00;12.70;;;;;;;18.76;100.00;99444.83;104776;1277;75257;-71
2022/06/12 03:45:44;;;;;;;14.90;13.50;;;;;;;19.56;100.00;99450.59;104751;1277;69269;-72
2022/06/12 03:48:20;;;;;;;14.60;13.20;;;;;;;20.22;100.00;99448.21;104274;1277;72952;-71
2022/06/12 03:51:00;;;;;;;16.10;14.50;;;;;;;20.77;100.00;99440.33;104737;1277;61384;-72
2022/06/12 03:53:35;;;;;;;;;;;;;;;21.28;100.00;99440.55;104840;1277;61396;-72
2022/06/12 03:59:47;;;;;;;13.50;12.20;;;;;;;22.15;100.00;99445.70;104766;1277;69154;-72
2022/06/12 04:02:18;;;;;;;13.70;12.50;;;;;;;22.57;100.00;99444.15;104733;1277;74410;-72
2022/06/12 04:04:48;;;;;;;14.20;12.70;;;;;;;22.90;100.00;99453.33;104821;1277;61464;-72
2022/06/12 04:07:17;;;;;;;14.20;12.80;;;;;;;23.36;100.00;99455.06;104808;1277;61370;-73
2022/06/12 04:09:46;;;;;;;14.00;12.70;;;;;;;23.64;100.00;99454.24;104980;1271;76130;-73
2022/06/12 04:12:18;;;;;;;;;;;;;;;23.88;100.00;99455.65;105178;1271;69492;-70
2022/06/12 04:14:53;;;;;;;13.90;12.50;;;;;;;24.21;100.00;99453.34;105177;1271;73073;-72
2022/06/12 04:17:21;;;;;;;13.70;12.40;;;;;;;24.31;100.00;99455.21;105206;1271;61415;-71
2022/06/12 04:20:05;;;;;;;13.50;12.30;;;;;;;24.24;99.45;99458.79;104968;1271;61272;-70
2022/06/12 04:22:35;;;;;;;13.20;12.00;;;;;;;24.27;96.58;99456.74;105182;1271;75262;-72
2022/06/12 04:25:14;;;;;;;14.10;12.60;;;;;;;24.46;95.73;99456.36;105034;1271;70292;-73
2022/06/12 04:27:43;;;;;;;13.90;12.50;;;;;;;24.73;94.97;99458.33;104988;1272;72792;-69
2022/06/12 04:30:16;;;;;;;15.40;13.30;;;;;;;24.86;94.51;99457.16;105150;1271;61281;-73
2022/06/12 04:32:43;;;;;;;14.70;13.20;;;;;;;24.96;93.56;99455.41;105202;1271;61804;-72
2022/06/12 04:35:10;;;;;;;13.30;12.10;;;;;;;25.17;91.91;99457.41;105017;1271;76313;-72
2022/06/12 04:37:37;;;;;;;12.80;11.60;;;;;;;25.34;91.06;99453.40;105045;1271;68503;-74
2022/06/12 04:40:07;;;;;;;14.20;12.90;;;;;;;25.49;90.44;99450.77;105232;1271;72996;-73
2022/06/12 04:42:34;;;;;;;;;;;;;;;25.64;90.01;99452.54;105149;1272;61555;-73
2022/06/12 04:45:00;;;;;;;13.20;11.90;;;;;;;25.83;89.79;99453.73;105222;1271;61749;-72
2022/06/12 04:47:29;;;;;;;12.60;11.40;;;;;;;26.11;88.69;99448.84;105194;1271;76080;-72
2022/06/12 04:49:56;;;;;;;13.40;12.10;;;;;;;26.15;86.69;99449.10;105236;1271;69271;-72
2022/06/12 04:52:25;;;;;;;11.20;10.20;;;;;;;26.15;86.57;99448.82;105188;1271;73332;-73
2022/06/12 04:54:52;;;;;;;11.80;10.70;;;;;;;26.20;86.16;99454.71;105206;1271;61265;-71
2022/06/12 04:57:19;;;;;;;13.90;11.10;;;;;;;26.35;85.81;99455.42;105190;1271;61183;-72
2022/06/12 04:59:47;;;;;;;11.60;10.50;;;;;;;26.50;84.50;99454.45;105169;1269;74883;-71
2022/06/12 05:02:13;;;;;;;11.50;10.60;;;;;;;26.74;83.13;99453.34;105199;1271;70439;-71
2022/06/12 05:04:42;;;;;;;11.90;10.90;;;;;;;26.84;82.61;99453.63;104955;1271;74441;-72
2022/06/12 05:07:12;;;;;;;10.90;10.00;;;;;;;26.99;82.05;99456.23;105014;1271;61295;-72
2022/06/12 05:09:40;;;;;;;11.00;10.00;;;;;;;27.02;80.06;99456.48;105161;1271;61801;-70
2022/06/12 05:12:08;;;;;;;11.10;10.10;;;;;;;27.03;79.75;99457.75;105181;1271;75486;-72
2022/06/12 05:14:35;;;;;;;11.50;10.40;;;;;;;27.05;78.71;99461.67;105213;1271;70570;-68
2022/06/12 05:17:06;;;;;;;10.90;9.60;;;;;;;26.97;78.76;99461.20;105178;1271;73225;-69
2022/06/12 05:19:37;;;;;;;10.90;9.90;;;;;;;27.00;78.03;99461.84;105154;1271;61263;-68
2022/06/12 05:22:05;;;;;;;11.20;10.30;;;;;;;26.98;76.70;99463.55;105211;1271;61376;-69
2022/06/12 05:24:32;;;;;;;11.00;10.10;;;;;;;26.94;75.91;99463.89;104977;1274;76590;-69
2022/06/12 05:26:59;;;;;;;12.00;9.20;;;;;;;27.00;76.49;99463.58;105178;1271;69378;-68
2022/06/12 05:29:33;;;;;;;11.30;10.20;;;;;;;27.19;76.25;99464.70;105170;1271;73363;-69
2022/06/12 05:32:00;;;;;;;9.20;8.40;;;;;;;27.43;75.94;99464.85;105244;1271;61301;-69
2022/06/12 05:34:28;;;;;;;10.40;9.40;;;;;;;27.57;75.67;99461.87;105140;1271;62054;-70
2022/06/12 05:36:55;;;;;;;9.40;8.20;;;;;;;27.75;74.31;99462.62;105181;1271;76219;-69
2022/06/12 05:39:23;;;;;;;8.80;7.90;;;;;;;27.95;73.14;99460.63;105244;1271;70391;-69
2022/06/12 05:41:52;;;;;;;9.60;7.90;;;;;;;28.04;71.75;99465.09;105161;1271;73972;-69
2022/06/12 05:44:19;;;;;;;;;;;;;;;28.09;70.32;99469.48;105247;1271;61339;-69
2022/06/12 05:46:47;;;;;;;9.00;8.20;;;;;;;28.11;68.78;99468.86;105218;1271;61409;-69
2022/06/12 05:49:15;;;;;;;9.20;8.30;;;;;;;28.26;68.95;99468.88;105180;1271;76694;-70
2022/06/12 05:51:42;;;;;;;12.00;8.00;;;;;;;28.43;68.37;99473.52;105292;1271;70560;-69
2022/06/12 05:54:10;;;;;;;9.20;8.10;;;;;;;28.39;66.73;99476.98;105186;1271;74293;-69
2022/06/12 05:56:38;;;;;;;9.80;8.70;;;;;;;28.44;64.53;99478.95;104887;1272;61368;-70
2022/06/12 05:59:04;;;;;;;10.70;9.00;;;;;;;28.31;60.60;99476.38;105153;1271;61901;-70
2022/06/12 06:01:31;;;;;;;9.70;8.70;;;;;;;28.39;60.43;99479.05;105127;1271;76406;-68
2022/06/12 06:03:58;;;;;;;10.40;8.20;;;;;;;28.54;60.49;99479.38;105179;1271;69095;-69
2022/06/12 06:06:31;;;;;;;9.20;8.30;;;;;;;28.76;60.85;99473.03;105167;1271;73297;-70
2022/06/12 06:08:58;;;;;;;8.60;7.30;;;;;;;28.88;60.29;99473.35;105159;1272;61314;-68
2022/06/12 06:11:26;;;;;;;8.80;7.90;;;;;;;28.29;60.15;99477.96;104960;1274;61364;-68
2022/06/12 06:13:53;;;;;;;7.90;7.10;;;;;;;28.10;60.10;99476.31;104990;1271;75824;-71
2022/06/12 06:16:21;;;;;;;8.60;7.70;;;;;;;28.33;59.15;99473.05;105210;1271;68673;-69
2022/06/12 06:18:47;;;;;;;9.40;7.60;;;;;;;28.29;59.22;99473.07;105187;1271;73513;-69
2022/06/12 06:21:15;;;;;;;10.30;7.50;;;;;;;28.48;59.29;99474.54;105173;1271;61304;-69
2022/06/12 06:23:43;;;;;;;10.40;6.70;;;;;;;28.58;59.06;99470.98;105171;1271;61197;-69
2022/06/12 06:26:10;;;;;;;6.90;6.20;;;;;;;28.71;58.84;99473.45;105181;1270;75037;-70
2022/06/12 06:28:39;;;;;;;6.80;6.00;;;;;;;29.01;58.87;99475.05;105169;1271;69486;-70
2022/06/12 06:31:06;;;;;;;6.80;6.10;;;;;;;29.28;57.95;99473.75;105172;1271;73192;-69
2022/06/12 06:33:33;;;;;;;7.10;6.00;;;;;;;29.31;56.38;99465.92;105173;1271;61294;-70
2022/06/12 06:36:00;;;;;;;8.60;6.10;;;;;;;29.18;55.69;99465.48;105197;1271;61727;-69
2022/06/12 06:38:27;;;;;;;9.00;6.40;;;;;;;29.19;55.74;99463.72;105187;1271;75320;-69
2022/06/12 06:40:53;;;;;;;7.30;6.60;;;;;;;29.12;55.71;99462.37;105166;1271;70486;-70
2022/06/12 06:43:20;;;;;;;10.90;9.90;;;;;;;28.99;55.83;99458.86;105171;1271;73465;-69
2022/06/12 06:48:32;;;;;;;8.60;5.40;;;;;;;29.18;55.76;99458.35;105195;1271;61594;-69
2022/06/12 06:50:59;;;;;;;6.60;6.00;;;;;;;29.19;54.71;99458.52;105191;1271;74305;-68
2022/06/12 06:53:26;;;;;;;6.60;5.90;;;;;;;29.14;53.67;99459.70;105168;1271;70305;-70
2022/06/12 06:55:53;;;;;;;5.90;5.20;;;;;;;29.02;52.67;99456.02;104981;1271;73368;-70
2022/06/12 06:58:23;;;;;;;4.90;4.50;;;;;;;28.98;52.69;99458.36;105150;1271;61295;-68
2022/06/12 07:00:50;;;;;;;6.30;5.40;;;;;;;28.96;51.93;99454.52;105240;1271;61298;-69
2022/06/12 07:03:17;;;;;;;6.90;5.50;;;;;;;28.82;52.24;99455.58;105169;1271;75436;-70
2022/06/12 07:05:47;;;;;;;6.10;5.50;;;;;;;28.88;52.95;99455.14;105202;1271;69520;-68
2022/06/12 07:08:13;;;;;;;;;;;;;;;29.07;52.91;99456.95;105207;1271;73377;-68
2022/06/12 07:10:42;;;;;;;6.80;5.60;;;;;;;29.19;52.58;99459.48;105053;1271;61332;-69
2022/06/12 07:13:10;;;;;;;7.00;5.00;;;;;;;29.13;52.02;99460.80;105317;1271;61179;-68
2022/06/12 07:15:36;;;;;;;6.90;5.10;;;;;;;29.06;52.76;99459.00;105155;1271;76460;-69
2022/06/12 07:18:05;;;;;;;6.00;5.40;;;;;;;29.11;52.64;99455.35;104953;1272;69502;-68
2022/06/12 07:20:37;;;;;;;7.90;5.40;;;;;;;29.19;52.86;99456.06;105266;1271;73612;-75
2022/06/12 07:23:07;;;;;;;8.50;5.00;;;;;;;29.27;51.88;99451.89;105014;1271;61247;-77
2022/06/12 07:25:40;;;;;;;7.00;5.40;;;;;;;29.24;51.30;99448.00;105177;1271;61254;-73
2022/06/12 07:28:07;;;;;;;6.30;4.80;;;;;;;29.15;51.40;99451.92;104979;1271;76273;-74
2022/06/12 07:30:34;;;;;;;8.40;5.20;;;;;;;28.94;50.88;99448.27;104865;1271;70198;-74
2022/06/12 07:33:01;;;;;;;8.50;5.40;;;;;;;28.54;51.32;99452.29;105018;1271;74221;-75
2022/06/12 07:35:27;;;;;;;10.80;5.60;;;;;;;28.17;52.43;99454.68;105058;1271;61326;-73
2022/06/12 07:37:54;;;;;;;7.20;4.70;;;;;;;27.92;52.42;99451.34;104944;1271;62203;-74
2022/06/12 07:40:27;;;;;;;6.30;4.60;;;;;;;27.66;52.70;99448.90;105059;1271;61276;-74
2022/06/12 07:42:54;;;;;;;6.10;4.50;;;;;;;27.44;52.90;99449.40;105071;1271;69116;-75
2022/06/12 07:45:20;;;;;;;5.40;4.30;;;;;;;27.26;53.28;99449.36;104931;1271;72891;-75
2022/06/12 07:47:47;;;;;;;8.20;4.90;;;;;;;27.14;52.86;99446.11;105028;1271;61420;-74
2022/06/12 07:50:15;;;;;;;5.60;4.80;;;;;;;26.99;52.84;99443.73;105049;1271;61222;-74
2022/06/12 07:52:43;;;;;;;8.10;5.70;;;;;;;26.77;52.07;99443.73;105017;1271;75194;-73
2022/06/12 07:55:13;;;;;;;8.80;5.70;;;;;;;26.52;51.73;99441.61;105057;1271;69412;-74
2022/06/12 07:57:40;;;;;;;5.30;4.80;;;;;;;26.24;51.96;99441.59;104966;1271;72676;-74
2022/06/12 08:00:10;;;;;;;5.30;4.80;;;;;;;26.17;53.29;99441.52;105006;1271;61381;-75
2022/06/12 08:02:37;;;;;;;6.00;4.80;;;;;;;26.05;52.87;99437.39;105079;1271;61245;-74
2022/06/12 08:05:05;;;;;;;7.30;4.60;;;;;;;25.93;53.84;99441.30;105031;1271;74808;-74
2022/06/12 08:07:31;;;;;;;5.90;5.00;;;;;;;25.99;54.68;99437.91;104930;1271;69092;-74
2022/06/12 08:09:58;;;;;;;6.90;4.70;;;;;;;26.00;54.70;99443.80;104946;1271;74125;-75
2022/06/12 08:12:24;;;;;;;7.00;5.10;;;;;;;26.04;55.37;99440.94;105055;1271;61329;-74
2022/06/12 08:14:53;;;;;;;6.00;4.90;;;;;;;26.10;54.10;99439.29;104949;1272;61210;-74
2022/06/12 08:17:20;;;;;;;6.40;5.10;;;;;;;26.08;54.31;99438.30;105049;1271;75122;-80
2022/06/12 08:22:32;;;;;;;6.40;4.60;;;;;;;26.06;53.33;99437.48;105195;1271;73765;-78
2022/06/12 08:24:59;;;;;;;5.90;5.30;;;;;;;26.01;53.48;99439.89;105186;1271;61422;-77
2022/06/12 08:27:26;;;;;;;7.00;4.90;;;;;;;26.02;53.69;99437.39;105153;1270;61519;-79
2022/06/12 08:29:52;;;;;;;7.20;4.80;;;;;;;25.91;52.49;99436.23;105085;1271;76186;-79
2022/06/12 08:32:21;;;;;;;9.60;4.90;;;;;;;25.74;52.99;99431.30;105060;1271;61323;-80
2022/06/12 08:34:56;;;;;;;7.40;4.50;;;;;;;25.82;53.67;99432.24;105155;1271;72156;-79
2022/06/12 08:37:28;;;;;;;6.40;4.80;;;;;;;25.90;54.60;99429.38;105034;1271;61334;-79
2022/06/12 08:39:54;;;;;;;7.00;4.60;;;;;;;26.05;55.21;99429.14;105076;1271;61338;-79
2022/06/12 08:42:24;;;;;;;6.40;4.50;;;;;;;26.21;55.45;99428.91;105054;1271;76113;-79
2022/06/12 08:45:07;;;;;;;8.40;5.90;;;;;;;26.30;53.44;99430.60;105084;1271;69335;-78
2022/06/12 08:47:33;;;;;;;5.70;4.70;;;;;;;26.19;52.62;99428.68;105074;1271;72920;-79
2022/06/12 08:50:13;;;;;;;6.20;4.50;;;;;;;26.03;52.31;99428.83;105063;1271;61418;-79
2022/06/12 08:53:14;;;;;;;6.80;4.50;;;;;;;25.98;52.62;99426.91;105063;1270;61416;-79
2022/06/12 08:55:43;;;;;;;4.70;4.10;;;;;;;26.18;53.86;99426.27;105062;1271;75271;-79
2022/06/12 08:58:31;;;;;;;5.30;4.10;;;;;;;26.41;54.46;99424.29;105082;1271;69551;-79
2022/06/12 09:00:59;;;;;;;4.60;4.00;;;;;;;26.63;54.23;99421.34;105042;1271;72799;-78
2022/06/12 09:03:31;;;;;;;5.60;4.00;;;;;;;26.84;54.86;99417.70;105006;1271;61370;-78
2022/06/12 09:06:16;;;;;;;6.10;4.40;;;;;;;27.01;52.71;99417.50;105054;1271;61248;-79
2022/06/12 09:09:07;;;;;;;7.00;5.40;;;;;;;27.07;52.54;99415.40;104922;1271;75464;-80
2022/06/12 09:11:45;;;;;;;7.30;4.50;;;;;;;27.22;52.60;99407.15;105050;1271;69482;-79
2022/06/12 09:14:17;;;;;;;6.10;4.30;;;;;;;27.43;52.96;99404.25;105086;1271;73432;-78
2022/06/12 09:17:09;;;;;;;5.60;4.10;;;;;;;27.57;51.86;99404.07;105062;1271;61384;-79
2022/06/12 09:19:49;;;;;;;6.30;4.50;;;;;;;27.68;51.83;99402.40;105083;1271;61615;-81
2022/06/12 09:22:55;;;;;;;5.20;4.10;;;;;;;27.78;51.59;99400.35;105083;1271;75093;-80
2022/06/12 09:25:43;;;;;;;5.80;5.00;;;;;;;27.99;50.52;99399.39;105040;1271;70285;-80
2022/06/12 09:28:35;;;;;;;6.00;5.20;;;;;;;28.17;49.81;99398.89;105056;1271;73423;-78
2022/06/12 09:31:23;;;;;;;8.90;5.60;;;;;;;28.08;46.84;99399.93;105018;1271;61294;-79
2022/06/12 09:34:11;;;;;;;6.60;5.60;;;;;;;27.58;45.55;99390.55;105073;1271;61388;-78
2022/06/12 09:36:47;;;;;;;6.90;5.30;;;;;;;27.06;46.68;99389.34;105146;1271;75151;-79
2022/06/12 09:39:22;;;;;;;6.90;5.00;;;;;;;26.69;47.24;99386.48;105070;1271;69484;-77
2022/06/12 09:42:15;;;;;;;6.30;4.60;;;;;;;26.61;47.37;99386.07;105055;1271;73492;-79
2022/06/12 09:45:06;;;;;;;7.10;5.10;;;;;;;26.62;48.03;99386.92;104520;1278;61914;-78
2022/06/12 09:47:53;;;;;;;5.90;4.60;;;;;;;26.64;46.96;99383.83;104670;1278;62100;-78
2022/06/12 09:50:49;;;;;;;5.00;4.10;;;;;;;26.60;47.13;99378.84;104587;1278;74201;-77
2022/06/12 09:53:28;;;;;;;7.70;4.70;;;;;;;26.66;47.19;99375.94;104530;1278;69396;-77
2022/06/12 09:56:21;;;;;;;7.60;5.30;;;;;;;26.76;47.38;99371.69;104549;1278;73733;-77
2022/06/12 09:59:12;;;;;;;4.90;4.40;;;;;;;27.02;47.58;99366.27;104483;1278;61325;-77
2022/06/12 10:01:45;;;;;;;6.00;4.80;;;;;;;27.26;47.45;99363.90;104505;1278;61310;-77
2022/06/12 10:04:25;;;;;;;7.30;4.40;;;;;;;27.49;46.99;99362.71;104507;1278;75403;-78
2022/06/12 10:07:05;;;;;;;4.80;4.30;;;;;;;27.52;46.64;99358.44;104684;1277;69129;-76
2022/06/12 10:09:38;;;;;;;5.10;4.70;;;;;;;27.40;45.34;99354.99;104579;1277;73353;-76
2022/06/12 10:12:14;;;;;;;5.10;4.60;;;;;;;27.25;46.17;99354.67;104687;1277;61335;-76
2022/06/12 10:15:05;;;;;;;6.50;4.80;;;;;;;27.54;47.25;99351.12;104613;1277;61365;-76
2022/06/12 10:17:39;;;;;;;5.70;4.40;;;;;;;27.98;47.58;99345.85;104654;1277;76513;-76
2022/06/12 10:20:16;;;;;;;7.20;4.40;;;;;;;28.20;47.30;99341.55;104488;1277;70535;-76
2022/06/12 10:22:46;;;;;;;4.60;4.20;;;;;;;28.44;47.73;99340.21;105036;1271;73511;-76
2022/06/12 10:25:23;;;;;;;5.40;4.40;;;;;;;28.42;47.52;99335.10;105256;1271;61705;-76
2022/06/12 10:28:01;;;;;;;5.60;5.00;;;;;;;28.48;47.08;99332.69;105257;1271;61249;-76
2022/06/12 10:30:56;;;;;;;6.40;4.50;;;;;;;28.35;47.09;99326.49;105220;1271;75117;-76
2022/06/12 10:33:30;;;;;;;5.00;4.50;;;;;;;27.96;46.87;99325.58;104630;1277;69939;-78
2022/06/12 10:36:01;;;;;;;5.00;4.50;;;;;;;27.75;46.83;99326.30;104408;1277;71807;-76
2022/06/12 10:38:32;;;;;;;5.30;4.80;;;;;;;27.84;47.22;99323.23;104613;1277;61227;-75
2022/06/12 10:41:07;;;;;;;6.00;4.60;;;;;;;27.99;47.07;99321.97;104683;1277;61867;-77
2022/06/12 10:43:47;;;;;;;4.80;4.40;;;;;;;28.03;46.19;99317.59;104403;1277;76403;-76
2022/06/12 10:46:22;;;;;;;5.10;4.40;;;;;;;28.12;46.86;99312.37;104636;1277;67264;-77
2022/06/12 10:49:16;;;;;;;5.80;4.60;;;;;;;28.28;47.48;99307.80;104627;1277;74201;-76
2022/06/12 10:51:44;;;;;;;5.40;4.70;;;;;;;28.42;47.59;99310.84;103864;1285;61542;-79
2022/06/12 10:54:28;;;;;;;5.10;4.60;;;;;;;28.55;47.61;99311.75;103865;1285;62470;-80
2022/06/12 10:57:01;;;;;;;5.00;4.10;;;;;;;28.80;47.73;99306.42;103953;1285;75242;-79
2022/06/12 10:59:52;;;;;;;6.30;4.70;;;;;;;28.96;46.26;99301.62;104024;1285;69467;-79
2022/06/12 11:02:34;;;;;;;4.90;4.40;;;;;;;29.07;45.17;99299.55;104117;1285;73419;-79
2022/06/12 11:05:20;;;;;;;5.40;4.40;;;;;;;29.11;45.48;99299.79;104030;1285;61331;-78
2022/06/12 11:07:57;;;;;;;5.60;4.70;;;;;;;29.14;45.65;99298.81;104069;1285;61365;-79
2022/06/12 11:10:52;;;;;;;6.10;4.20;;;;;;;29.18;44.84;99297.41;104072;1278;76321;-79
2022/06/12 11:13:25;;;;;;;6.80;5.50;;;;;;;29.39;45.60;99297.16;104520;1277;69322;-78
2022/06/12 11:16:07;;;;;;;9.30;5.70;;;;;;;29.42;45.68;99292.92;104501;1277;73771;-79
2022/06/12 11:19:02;;;;;;;5.10;4.40;;;;;;;29.34;45.78;99293.72;104399;1280;61374;-80
2022/06/12 11:21:40;;;;;;;9.10;5.90;;;;;;;29.29;46.10;99287.79;104524;1278;61353;-78
2022/06/12 11:24:24;;;;;;;8.20;4.80;;;;;;;29.13;46.17;99284.89;104628;1278;77061;-78
2022/06/12 11:26:59;;;;;;;6.00;4.30;;;;;;;28.92;46.16;99281.29;104702;1280;70796;-79
2022/06/12 11:29:53;;;;;;;4.50;4.10;;;;;;;28.77;46.09;99281.64;104855;1271;74722;-78
2022/06/12 11:32:32;;;;;;;5.80;4.30;;;;;;;28.55;45.51;99280.75;105085;1271;61230;-78
2022/06/12 11:35:01;;;;;;;6.00;4.40;;;;;;;28.16;45.05;99281.47;105085;1271;61958;-78
2022/06/12 11:37:47;;;;;;;7.00;4.60;;;;;;;27.96;45.73;99280.02;104952;1271;76132;-79
2022/06/12 11:40:19;;;;;;;5.00;4.50;;;;;;;28.06;46.19;99273.89;105104;1271;69207;-78
2022/06/12 11:42:51;;;;;;;5.50;4.50;;;;;;;28.40;45.70;99271.63;105084;1271;73094;-80
2022/06/12 11:45:36;;;;;;;5.00;4.30;;;;;;;28.67;45.13;99267.02;104983;1271;61756;-81
2022/06/12 11:48:22;;;;;;;4.50;4.10;;;;;;;28.97;45.70;99265.15;105024;1271;61292;-79
2022/06/12 11:51:17;;;;;;;4.90;4.40;;;;;;;29.10;44.65;99259.52;105005;1270;76274;-78
2022/06/12 11:53:50;;;;;;;8.00;4.30;;;;;;;28.91;44.44;99260.55;105116;1271;68078;-79
2022/06/12 11:56:29;;;;;;;5.30;4.00;;;;;;;28.86;45.26;99258.41;105090;1271;74714;-78
2022/06/12 11:59:00;;;;;;;5.70;5.20;;;;;;;29.02;44.30;99252.64;105115;1271;61284;-77
2022/06/12 12:01:44;;;;;;;5.20;4.30;;;;;;;29.20;45.31;99254.16;105074;1271;61793;-78
2022/06/12 12:04:27;;;;;;;5.60;5.10;;;;;;;29.46;45.82;99249.77;105327;1271;73785;-79
2022/06/12 12:07:21;;;;;;;4.70;4.30;;;;;;;29.71;45.67;99247.02;105267;1271;69148;-79